sensor_id;sensor_type;location;lat;lon;timestamp;P1;durP1;ratioP1;P2;durP2;ratioP2
4819;SDS011;2424;49.696;6.630;2024-03-22T00:01:13;1.20;;;1.20;;
4819;SDS011;2424;49.696;6.630;2024-03-22T00:06:34;0.90;;;0.90;;
4819;SDS011;2424;49.696;6.630;2024-03-22T00:11:58;1.10;;;1.00;;
4819;SDS011;2424;49.696;6.630;2024-03-22T00:17:20;1.20;;;1.10;;
4819;SDS011;2424;49.696;6.630;2024-03-22T00:22:42;3.40;;;1.80;;
4819;SDS011;2424;49.696;6.630;2024-03-22T00:28:05;1.50;;;1.40;;
4819;SDS011;2424;49.696;6.630;2024-03-22T00:33:27;1.10;;;1.00;;
4819;SDS011;2424;49.696;6.630;2024-03-22T00:38:49;2.10;;;1.30;;
4819;SDS011;2424;49.696;6.630;2024-03-22T00:44:12;1.63;;;1.33;;
4819;SDS011;2424;49.696;6.630;2024-03-22T00:49:34;2.00;;;1.63;;
4819;SDS011;2424;49.696;6.630;2024-03-22T00:54:56;1.40;;;1.10;;
4819;SDS011;2424;49.696;6.630;2024-03-22T01:00:19;0.90;;;0.90;;
4819;SDS011;2424;49.696;6.630;2024-03-22T01:05:41;2.63;;;1.70;;
4819;SDS011;2424;49.696;6.630;2024-03-22T01:11:04;1.83;;;1.40;;
4819;SDS011;2424;49.696;6.630;2024-03-22T01:16:27;0.83;;;0.83;;
4819;SDS011;2424;49.696;6.630;2024-03-22T01:21:49;1.00;;;1.00;;
4819;SDS011;2424;49.696;6.630;2024-03-22T01:27:11;1.40;;;1.13;;
4819;SDS011;2424;49.696;6.630;2024-03-22T01:32:36;0.80;;;0.80;;
4819;SDS011;2424;49.696;6.630;2024-03-22T01:37:58;4.87;;;1.10;;
4819;SDS011;2424;49.696;6.630;2024-03-22T01:43:20;1.17;;;1.07;;
4819;SDS011;2424;49.696;6.630;2024-03-22T01:48:43;1.70;;;0.93;;
4819;SDS011;2424;49.696;6.630;2024-03-22T01:54:05;0.70;;;0.70;;
4819;SDS011;2424;49.696;6.630;2024-03-22T01:59:30;0.90;;;0.90;;
4819;SDS011;2424;49.696;6.630;2024-03-22T02:04:54;0.87;;;0.80;;
4819;SDS011;2424;49.696;6.630;2024-03-22T02:10:17;2.00;;;1.00;;
4819;SDS011;2424;49.696;6.630;2024-03-22T02:15:39;0.80;;;0.80;;
4819;SDS011;2424;49.696;6.630;2024-03-22T02:21:02;0.80;;;0.70;;
4819;SDS011;2424;49.696;6.630;2024-03-22T02:26:26;0.93;;;0.93;;
4819;SDS011;2424;49.696;6.630;2024-03-22T02:31:48;1.20;;;1.10;;
4819;SDS011;2424;49.696;6.630;2024-03-22T02:37:10;0.90;;;0.90;;
4819;SDS011;2424;49.696;6.630;2024-03-22T02:42:33;0.53;;;0.53;;
4819;SDS011;2424;49.696;6.630;2024-03-22T02:47:55;1.07;;;0.97;;
4819;SDS011;2424;49.696;6.630;2024-03-22T02:53:17;0.70;;;0.70;;
4819;SDS011;2424;49.696;6.630;2024-03-22T02:58:40;1.33;;;0.60;;
4819;SDS011;2424;49.696;6.630;2024-03-22T03:04:02;0.60;;;0.60;;
4819;SDS011;2424;49.696;6.630;2024-03-22T03:09:24;1.20;;;0.93;;
4819;SDS011;2424;49.696;6.630;2024-03-22T03:14:48;0.70;;;0.70;;
4819;SDS011;2424;49.696;6.630;2024-03-22T03:20:10;0.60;;;0.60;;
4819;SDS011;2424;49.696;6.630;2024-03-22T03:25:33;1.00;;;0.90;;
4819;SDS011;2424;49.696;6.630;2024-03-22T03:30:56;0.77;;;0.77;;
4819;SDS011;2424;49.696;6.630;2024-03-22T03:36:18;0.77;;;0.77;;
4819;SDS011;2424;49.696;6.630;2024-03-22T03:41:40;5.33;;;0.90;;
4819;SDS011;2424;49.696;6.630;2024-03-22T03:47:04;0.90;;;0.90;;
4819;SDS011;2424;49.696;6.630;2024-03-22T03:52:26;0.50;;;0.50;;
4819;SDS011;2424;49.696;6.630;2024-03-22T03:57:49;1.03;;;1.03;;
4819;SDS011;2424;49.696;6.630;2024-03-22T04:03:12;0.70;;;0.70;;
4819;SDS011;2424;49.696;6.630;2024-03-22T04:08:34;0.50;;;0.50;;
4819;SDS011;2424;49.696;6.630;2024-03-22T04:13:56;0.40;;;0.40;;
4819;SDS011;2424;49.696;6.630;2024-03-22T04:19:20;0.70;;;0.70;;
4819;SDS011;2424;49.696;6.630;2024-03-22T04:24:42;0.80;;;0.80;;
4819;SDS011;2424;49.696;6.630;2024-03-22T04:30:04;1.13;;;1.13;;
4819;SDS011;2424;49.696;6.630;2024-03-22T04:35:28;0.80;;;0.80;;
4819;SDS011;2424;49.696;6.630;2024-03-22T04:40:50;0.87;;;0.87;;
4819;SDS011;2424;49.696;6.630;2024-03-22T04:46:12;0.90;;;0.90;;
4819;SDS011;2424;49.696;6.630;2024-03-22T04:51:35;0.80;;;0.80;;
4819;SDS011;2424;49.696;6.630;2024-03-22T04:56:57;0.77;;;0.77;;
4819;SDS011;2424;49.696;6.630;2024-03-22T05:02:19;1.57;;;0.90;;
4819;SDS011;2424;49.696;6.630;2024-03-22T05:07:42;0.90;;;0.90;;
4819;SDS011;2424;49.696;6.630;2024-03-22T05:13:04;0.90;;;0.90;;
4819;SDS011;2424;49.696;6.630;2024-03-22T05:18:26;1.10;;;1.10;;
4819;SDS011;2424;49.696;6.630;2024-03-22T05:23:50;1.20;;;1.20;;
4819;SDS011;2424;49.696;6.630;2024-03-22T05:29:12;0.83;;;0.83;;
4819;SDS011;2424;49.696;6.630;2024-03-22T05:34:35;0.93;;;0.93;;
4819;SDS011;2424;49.696;6.630;2024-03-22T05:39:58;0.90;;;0.90;;
4819;SDS011;2424;49.696;6.630;2024-03-22T05:45:20;1.27;;;1.27;;
4819;SDS011;2424;49.696;6.630;2024-03-22T05:50:42;1.00;;;0.70;;
4819;SDS011;2424;49.696;6.630;2024-03-22T05:56:06;1.10;;;0.90;;
4819;SDS011;2424;49.696;6.630;2024-03-22T06:01:28;0.80;;;0.80;;
4819;SDS011;2424;49.696;6.630;2024-03-22T06:06:50;3.03;;;1.17;;
4819;SDS011;2424;49.696;6.630;2024-03-22T06:12:13;3.80;;;1.40;;
4819;SDS011;2424;49.696;6.630;2024-03-22T06:17:35;1.20;;;1.20;;
4819;SDS011;2424;49.696;6.630;2024-03-22T06:22:57;1.90;;;1.20;;
4819;SDS011;2424;49.696;6.630;2024-03-22T06:28:21;1.03;;;1.03;;
4819;SDS011;2424;49.696;6.630;2024-03-22T06:33:43;1.30;;;1.20;;
4819;SDS011;2424;49.696;6.630;2024-03-22T06:39:05;1.40;;;1.30;;
4819;SDS011;2424;49.696;6.630;2024-03-22T06:44:31;1.60;;;1.27;;
4819;SDS011;2424;49.696;6.630;2024-03-22T06:49:53;1.10;;;1.10;;
4819;SDS011;2424;49.696;6.630;2024-03-22T06:55:15;2.03;;;1.83;;
4819;SDS011;2424;49.696;6.630;2024-03-22T07:00:38;1.23;;;1.23;;
4819;SDS011;2424;49.696;6.630;2024-03-22T07:06:00;1.33;;;1.33;;
4819;SDS011;2424;49.696;6.630;2024-03-22T07:11:22;1.97;;;1.80;;
4819;SDS011;2424;49.696;6.630;2024-03-22T07:16:45;1.10;;;0.97;;
4819;SDS011;2424;49.696;6.630;2024-03-22T07:22:07;2.17;;;1.63;;
4819;SDS011;2424;49.696;6.630;2024-03-22T07:27:29;1.67;;;1.57;;
4819;SDS011;2424;49.696;6.630;2024-03-22T07:32:52;1.70;;;1.60;;
4819;SDS011;2424;49.696;6.630;2024-03-22T07:38:14;2.20;;;2.00;;
4819;SDS011;2424;49.696;6.630;2024-03-22T07:43:36;2.53;;;1.33;;
4819;SDS011;2424;49.696;6.630;2024-03-22T07:49:00;1.97;;;1.87;;
4819;SDS011;2424;49.696;6.630;2024-03-22T07:54:24;1.90;;;1.80;;
4819;SDS011;2424;49.696;6.630;2024-03-22T07:59:46;2.60;;;2.07;;
4819;SDS011;2424;49.696;6.630;2024-03-22T08:05:09;1.63;;;1.63;;
4819;SDS011;2424;49.696;6.630;2024-03-22T08:10:31;2.50;;;2.40;;
4819;SDS011;2424;49.696;6.630;2024-03-22T08:15:53;11.30;;;2.73;;
4819;SDS011;2424;49.696;6.630;2024-03-22T08:21:16;2.53;;;2.33;;
4819;SDS011;2424;49.696;6.630;2024-03-22T08:26:38;1.90;;;1.80;;
4819;SDS011;2424;49.696;6.630;2024-03-22T08:32:00;2.93;;;2.63;;
4819;SDS011;2424;49.696;6.630;2024-03-22T08:37:25;2.30;;;2.20;;
4819;SDS011;2424;49.696;6.630;2024-03-22T08:42:48;3.80;;;2.20;;
4819;SDS011;2424;49.696;6.630;2024-03-22T08:48:10;5.27;;;3.23;;
4819;SDS011;2424;49.696;6.630;2024-03-22T08:53:33;2.77;;;2.57;;
4819;SDS011;2424;49.696;6.630;2024-03-22T08:58:55;3.10;;;2.80;;
4819;SDS011;2424;49.696;6.630;2024-03-22T09:04:17;3.40;;;3.20;;
4819;SDS011;2424;49.696;6.630;2024-03-22T09:09:40;3.40;;;3.10;;
4819;SDS011;2424;49.696;6.630;2024-03-22T09:15:02;4.67;;;4.03;;
4819;SDS011;2424;49.696;6.630;2024-03-22T09:20:25;6.40;;;4.00;;
4819;SDS011;2424;49.696;6.630;2024-03-22T09:25:48;3.40;;;3.17;;
4819;SDS011;2424;49.696;6.630;2024-03-22T09:31:10;10.20;;;4.30;;
4819;SDS011;2424;49.696;6.630;2024-03-22T09:36:32;8.43;;;4.50;;
4819;SDS011;2424;49.696;6.630;2024-03-22T09:41:57;6.53;;;5.43;;
4819;SDS011;2424;49.696;6.630;2024-03-22T09:47:19;6.70;;;4.73;;
4819;SDS011;2424;49.696;6.630;2024-03-22T09:52:42;13.80;;;7.53;;
4819;SDS011;2424;49.696;6.630;2024-03-22T09:58:06;12.23;;;8.27;;
4819;SDS011;2424;49.696;6.630;2024-03-22T10:03:28;11.10;;;7.17;;
4819;SDS011;2424;49.696;6.630;2024-03-22T10:08:50;9.93;;;5.63;;
4819;SDS011;2424;49.696;6.630;2024-03-22T10:14:14;7.73;;;6.10;;
4819;SDS011;2424;49.696;6.630;2024-03-22T10:19:36;11.63;;;7.17;;
4819;SDS011;2424;49.696;6.630;2024-03-22T10:25:00;11.20;;;6.83;;
4819;SDS011;2424;49.696;6.630;2024-03-22T10:30:24;10.67;;;7.30;;
4819;SDS011;2424;49.696;6.630;2024-03-22T10:35:46;14.77;;;8.43;;
4819;SDS011;2424;49.696;6.630;2024-03-22T10:41:09;12.37;;;8.00;;
4819;SDS011;2424;49.696;6.630;2024-03-22T10:46:33;9.53;;;5.97;;
4819;SDS011;2424;49.696;6.630;2024-03-22T10:51:58;15.67;;;9.00;;
4819;SDS011;2424;49.696;6.630;2024-03-22T10:57:22;8.77;;;5.87;;
4819;SDS011;2424;49.696;6.630;2024-03-22T11:02:46;8.43;;;6.07;;
4819;SDS011;2424;49.696;6.630;2024-03-22T11:08:08;14.30;;;6.83;;
4819;SDS011;2424;49.696;6.630;2024-03-22T11:13:35;13.97;;;8.10;;
4819;SDS011;2424;49.696;6.630;2024-03-22T11:18:58;14.40;;;8.10;;
4819;SDS011;2424;49.696;6.630;2024-03-22T11:24:20;9.00;;;5.67;;
4819;SDS011;2424;49.696;6.630;2024-03-22T11:29:42;10.03;;;7.20;;
4819;SDS011;2424;49.696;6.630;2024-03-22T11:35:08;7.17;;;6.30;;
4819;SDS011;2424;49.696;6.630;2024-03-22T11:40:31;15.03;;;9.67;;
4819;SDS011;2424;49.696;6.630;2024-03-22T11:45:54;13.03;;;7.33;;
4819;SDS011;2424;49.696;6.630;2024-03-22T11:51:17;10.87;;;6.67;;
4819;SDS011;2424;49.696;6.630;2024-03-22T11:56:39;11.90;;;6.37;;
4819;SDS011;2424;49.696;6.630;2024-03-22T12:02:01;11.60;;;6.57;;
4819;SDS011;2424;49.696;6.630;2024-03-22T12:07:28;10.23;;;6.90;;
4819;SDS011;2424;49.696;6.630;2024-03-22T12:12:50;12.07;;;7.80;;
4819;SDS011;2424;49.696;6.630;2024-03-22T12:18:13;8.43;;;5.63;;
4819;SDS011;2424;49.696;6.630;2024-03-22T12:23:37;9.20;;;6.37;;
4819;SDS011;2424;49.696;6.630;2024-03-22T12:28:59;9.97;;;7.10;;
4819;SDS011;2424;49.696;6.630;2024-03-22T12:34:21;7.43;;;5.60;;
4819;SDS011;2424;49.696;6.630;2024-03-22T12:39:44;8.33;;;7.40;;
4819;SDS011;2424;49.696;6.630;2024-03-22T12:45:07;10.50;;;6.87;;
4819;SDS011;2424;49.696;6.630;2024-03-22T12:50:30;7.10;;;4.73;;
4819;SDS011;2424;49.696;6.630;2024-03-22T12:55:53;8.40;;;6.13;;
4819;SDS011;2424;49.696;6.630;2024-03-22T13:01:15;9.27;;;5.80;;
4819;SDS011;2424;49.696;6.630;2024-03-22T13:06:37;8.13;;;5.67;;
4819;SDS011;2424;49.696;6.630;2024-03-22T13:12:00;11.33;;;5.60;;
4819;SDS011;2424;49.696;6.630;2024-03-22T13:17:22;9.03;;;6.23;;
4819;SDS011;2424;49.696;6.630;2024-03-22T13:22:44;8.33;;;5.93;;
4819;SDS011;2424;49.696;6.630;2024-03-22T13:28:08;9.03;;;6.37;;
4819;SDS011;2424;49.696;6.630;2024-03-22T13:33:30;6.80;;;5.23;;
4819;SDS011;2424;49.696;6.630;2024-03-22T13:38:52;4.80;;;4.30;;
4819;SDS011;2424;49.696;6.630;2024-03-22T13:44:15;12.07;;;5.90;;
4819;SDS011;2424;49.696;6.630;2024-03-22T13:49:37;6.20;;;4.50;;
4819;SDS011;2424;49.696;6.630;2024-03-22T13:55:01;5.17;;;3.73;;
4819;SDS011;2424;49.696;6.630;2024-03-22T14:00:26;11.70;;;4.83;;
4819;SDS011;2424;49.696;6.630;2024-03-22T14:05:48;4.83;;;4.40;;
4819;SDS011;2424;49.696;6.630;2024-03-22T14:11:10;4.80;;;3.80;;
4819;SDS011;2424;49.696;6.630;2024-03-22T14:16:33;3.10;;;2.77;;
4819;SDS011;2424;49.696;6.630;2024-03-22T14:21:56;4.20;;;2.57;;
4819;SDS011;2424;49.696;6.630;2024-03-22T14:27:18;6.57;;;3.40;;
4819;SDS011;2424;49.696;6.630;2024-03-22T14:32:41;5.73;;;3.87;;
4819;SDS011;2424;49.696;6.630;2024-03-22T14:38:03;4.30;;;3.90;;
4819;SDS011;2424;49.696;6.630;2024-03-22T14:43:25;3.90;;;3.60;;
4819;SDS011;2424;49.696;6.630;2024-03-22T14:48:49;4.87;;;3.60;;
4819;SDS011;2424;49.696;6.630;2024-03-22T14:54:11;3.87;;;3.10;;
4819;SDS011;2424;49.696;6.630;2024-03-22T14:59:33;3.37;;;3.00;;
4819;SDS011;2424;49.696;6.630;2024-03-22T15:04:56;4.10;;;3.50;;
4819;SDS011;2424;49.696;6.630;2024-03-22T15:10:18;3.10;;;2.87;;
4819;SDS011;2424;49.696;6.630;2024-03-22T15:15:41;3.30;;;3.10;;
4819;SDS011;2424;49.696;6.630;2024-03-22T15:21:04;3.57;;;3.10;;
4819;SDS011;2424;49.696;6.630;2024-03-22T15:26:26;3.17;;;2.97;;
4819;SDS011;2424;49.696;6.630;2024-03-22T15:31:48;2.53;;;2.43;;
4819;SDS011;2424;49.696;6.630;2024-03-22T15:37:11;3.27;;;2.70;;
4819;SDS011;2424;49.696;6.630;2024-03-22T15:42:33;3.67;;;3.37;;
4819;SDS011;2424;49.696;6.630;2024-03-22T15:47:55;3.60;;;3.30;;
4819;SDS011;2424;49.696;6.630;2024-03-22T15:53:18;2.93;;;2.70;;
4819;SDS011;2424;49.696;6.630;2024-03-22T15:58:40;3.03;;;2.57;;
4819;SDS011;2424;49.696;6.630;2024-03-22T16:04:02;4.80;;;3.60;;
4819;SDS011;2424;49.696;6.630;2024-03-22T16:09:26;3.70;;;3.27;;
4819;SDS011;2424;49.696;6.630;2024-03-22T16:14:48;3.17;;;2.93;;
4819;SDS011;2424;49.696;6.630;2024-03-22T16:20:11;3.07;;;2.77;;
4819;SDS011;2424;49.696;6.630;2024-03-22T16:25:35;4.40;;;3.50;;
4819;SDS011;2424;49.696;6.630;2024-03-22T16:30:57;3.23;;;2.30;;
4819;SDS011;2424;49.696;6.630;2024-03-22T16:36:19;2.90;;;2.33;;
4819;SDS011;2424;49.696;6.630;2024-03-22T16:41:44;4.53;;;2.50;;
4819;SDS011;2424;49.696;6.630;2024-03-22T16:47:06;3.77;;;3.47;;
4819;SDS011;2424;49.696;6.630;2024-03-22T16:52:28;2.60;;;2.50;;
4819;SDS011;2424;49.696;6.630;2024-03-22T16:57:53;2.90;;;2.70;;
4819;SDS011;2424;49.696;6.630;2024-03-22T17:03:19;2.30;;;2.20;;
4819;SDS011;2424;49.696;6.630;2024-03-22T17:08:41;6.27;;;2.83;;
4819;SDS011;2424;49.696;6.630;2024-03-22T17:14:05;6.53;;;3.00;;
4819;SDS011;2424;49.696;6.630;2024-03-22T17:19:27;3.17;;;2.40;;
4819;SDS011;2424;49.696;6.630;2024-03-22T17:24:48;1.63;;;1.57;;
4819;SDS011;2424;49.696;6.630;2024-03-22T17:30:12;2.60;;;2.40;;
4819;SDS011;2424;49.696;6.630;2024-03-22T17:35:34;2.67;;;2.47;;
4819;SDS011;2424;49.696;6.630;2024-03-22T17:40:56;2.20;;;2.10;;
4819;SDS011;2424;49.696;6.630;2024-03-22T17:46:20;2.83;;;2.33;;
4819;SDS011;2424;49.696;6.630;2024-03-22T17:51:42;2.50;;;2.10;;
4819;SDS011;2424;49.696;6.630;2024-03-22T17:57:04;2.33;;;2.13;;
4819;SDS011;2424;49.696;6.630;2024-03-22T18:02:27;2.03;;;1.93;;
4819;SDS011;2424;49.696;6.630;2024-03-22T18:07:49;2.20;;;2.00;;
4819;SDS011;2424;49.696;6.630;2024-03-22T18:13:11;1.80;;;1.77;;
4819;SDS011;2424;49.696;6.630;2024-03-22T18:18:34;1.70;;;1.60;;
4819;SDS011;2424;49.696;6.630;2024-03-22T18:23:56;1.50;;;1.47;;
4819;SDS011;2424;49.696;6.630;2024-03-22T18:29:18;1.63;;;1.53;;
4819;SDS011;2424;49.696;6.630;2024-03-22T18:34:42;1.70;;;1.60;;
4819;SDS011;2424;49.696;6.630;2024-03-22T18:40:05;1.60;;;1.47;;
4819;SDS011;2424;49.696;6.630;2024-03-22T18:45:28;1.47;;;1.47;;
4819;SDS011;2424;49.696;6.630;2024-03-22T18:50:51;1.43;;;1.33;;
4819;SDS011;2424;49.696;6.630;2024-03-22T18:56:13;1.40;;;1.40;;
4819;SDS011;2424;49.696;6.630;2024-03-22T19:01:35;1.73;;;1.53;;
4819;SDS011;2424;49.696;6.630;2024-03-22T19:06:58;1.67;;;1.57;;
4819;SDS011;2424;49.696;6.630;2024-03-22T19:12:20;1.97;;;1.83;;
4819;SDS011;2424;49.696;6.630;2024-03-22T19:17:43;3.27;;;2.20;;
4819;SDS011;2424;49.696;6.630;2024-03-22T19:23:06;1.60;;;1.60;;
4819;SDS011;2424;49.696;6.630;2024-03-22T19:28:28;1.90;;;1.80;;
4819;SDS011;2424;49.696;6.630;2024-03-22T19:33:50;2.00;;;1.90;;
4819;SDS011;2424;49.696;6.630;2024-03-22T19:39:13;1.97;;;1.90;;
4819;SDS011;2424;49.696;6.630;2024-03-22T19:44:36;2.63;;;2.17;;
4819;SDS011;2424;49.696;6.630;2024-03-22T19:49:58;1.87;;;1.80;;
4819;SDS011;2424;49.696;6.630;2024-03-22T19:55:22;6.47;;;2.40;;
4819;SDS011;2424;49.696;6.630;2024-03-22T20:00:44;2.40;;;2.10;;
4819;SDS011;2424;49.696;6.630;2024-03-22T20:06:06;2.00;;;1.77;;
4819;SDS011;2424;49.696;6.630;2024-03-22T20:11:29;2.03;;;1.93;;
4819;SDS011;2424;49.696;6.630;2024-03-22T20:16:51;2.33;;;2.13;;
4819;SDS011;2424;49.696;6.630;2024-03-22T20:22:14;2.17;;;2.07;;
4819;SDS011;2424;49.696;6.630;2024-03-22T20:27:37;2.07;;;1.97;;
4819;SDS011;2424;49.696;6.630;2024-03-22T20:32:59;2.53;;;2.33;;
4819;SDS011;2424;49.696;6.630;2024-03-22T20:38:21;7.60;;;4.80;;
